createdAt,value
2018-07-05T00:06:12.243Z,94571.80
2018-07-05T00:21:27.206Z,94563.47
2018-07-05T00:36:41.865Z,94566.37
2018-07-05T00:51:56.713Z,94562.66
2018-07-05T01:07:11.580Z,94549.94
2018-07-05T01:22:26.300Z,94542.82
2018-07-05T01:37:41.100Z,94547.62
2018-07-05T01:52:55.739Z,94550.87
2018-07-05T02:08:10.572Z,94552.84
2018-07-05T02:23:25.321Z,94549.93
2018-07-05T02:38:40.331Z,94560.66
2018-07-05T02:53:55.084Z,94565.31
2018-07-05T03:09:09.812Z,94567.59
2018-07-05T03:24:25.708Z,94574.47
2018-07-05T03:39:40.619Z,94585.83
2018-07-05T03:54:55.427Z,94589.31
2018-07-05T04:10:10.124Z,94596.31
2018-07-05T04:25:25.023Z,94596.00
2018-07-05T04:40:39.713Z,94601.91
2018-07-05T04:55:54.499Z,94596.38
2018-07-05T05:11:09.331Z,94591.50
2018-07-05T05:26:24.166Z,94577.98
2018-07-05T05:41:38.923Z,94581.66
2018-07-05T05:56:53.712Z,94596.05
2018-07-05T06:12:08.454Z,94601.33
2018-07-05T06:27:23.307Z,94599.33
2018-07-05T06:42:38.029Z,94592.81
2018-07-05T06:57:52.803Z,94593.46
2018-07-05T07:13:08.747Z,94583.95
2018-07-05T07:28:25.343Z,94585.41
2018-07-05T07:43:27.757Z,94585.31
2018-07-05T07:58:30.156Z,94569.20
2018-07-05T08:13:32.551Z,94572.28
2018-07-05T08:28:34.911Z,94564.39
2018-07-05T08:43:37.313Z,94543.20
2018-07-05T08:58:39.676Z,94536.24
2018-07-05T09:13:42.052Z,94529.13
2018-07-05T09:28:44.425Z,94516.34
2018-07-05T09:43:46.864Z,94511.98
2018-07-05T09:58:49.256Z,94506.89
2018-07-05T10:13:53.198Z,94502.14
2018-07-05T10:29:07.865Z,94485.47
2018-07-05T10:44:22.640Z,94487.95
2018-07-05T10:59:37.642Z,94474.61
2018-07-05T11:14:52.366Z,94475.39
2018-07-05T11:30:07.108Z,94470.80
2018-07-05T11:45:21.971Z,94461.64
2018-07-05T12:00:37.073Z,94449.14
2018-07-05T12:15:52.029Z,94445.27
2018-07-05T12:31:06.928Z,94432.66
2018-07-05T12:46:21.646Z,94428.97
2018-07-05T13:01:36.404Z,94416.95
2018-07-05T13:16:51.296Z,94417.20
2018-07-05T13:32:06.113Z,94398.57
2018-07-05T13:47:20.812Z,94408.59
2018-07-05T14:02:35.513Z,94405.42
2018-07-05T14:17:50.291Z,94404.60
2018-07-05T14:33:05.120Z,94400.32
2018-07-05T14:48:19.903Z,94397.59
2018-07-05T15:03:34.590Z,94387.49
2018-07-05T15:18:49.324Z,94385.23
2018-07-05T15:34:04.169Z,94378.25
2018-07-05T15:49:18.828Z,94380.52
2018-07-05T16:04:33.704Z,94372.83
2018-07-05T16:19:48.465Z,94378.89
2018-07-05T16:35:03.316Z,94371.73
2018-07-05T16:50:18.263Z,94366.48
2018-07-05T17:05:32.915Z,94368.24
2018-07-05T17:20:47.648Z,94374.72
2018-07-05T17:36:02.604Z,94369.50
2018-07-05T17:51:17.445Z,94380.62
2018-07-05T18:06:32.294Z,94384.83
2018-07-05T18:21:47.373Z,94394.84
2018-07-05T18:37:02.434Z,94392.55
2018-07-05T18:52:17.341Z,94418.27
2018-07-05T19:07:32.464Z,94422.52
2018-07-05T19:22:47.347Z,94432.28
2018-07-05T19:38:02.055Z,94426.88
2018-07-05T19:53:16.848Z,94434.41
2018-07-05T20:08:31.813Z,94422.92
2018-07-05T20:23:46.719Z,94425.34
2018-07-05T20:39:01.588Z,94426.67
2018-07-05T20:54:16.412Z,94425.39
2018-07-05T21:09:31.232Z,94430.66
2018-07-05T21:24:45.952Z,94432.20
2018-07-05T21:40:00.660Z,94440.73
2018-07-05T21:55:15.385Z,94438.81
2018-07-05T22:10:30.256Z,94440.47
2018-07-05T22:25:50.459Z,94432.53
2018-07-05T22:41:05.387Z,94430.34
2018-07-05T22:56:20.088Z,94426.55
2018-07-05T23:11:34.768Z,94421.73
2018-07-05T23:26:49.524Z,94415.09
2018-07-05T23:42:04.320Z,94412.94
2018-07-05T23:57:19.128Z,94407.20
